createdAt,value
2018-06-23T00:01:13.697Z,12.70
2018-06-23T00:03:43.324Z,12.50
2018-06-23T00:06:13.072Z,12.80
2018-06-23T00:08:43.006Z,13.00
2018-06-23T00:11:13.180Z,13.00
2018-06-23T00:13:42.786Z,12.80
2018-06-23T00:16:14.042Z,12.60
2018-06-23T00:18:44.303Z,12.10
2018-06-23T00:21:14.471Z,11.70
2018-06-23T00:23:44.144Z,12.30
2018-06-23T00:26:18.852Z,12.50
2018-06-23T00:28:48.557Z,12.30
2018-06-23T00:36:56.442Z,12.80
2018-06-23T00:39:26.090Z,12.90
2018-06-23T00:41:55.851Z,13.10
2018-06-23T00:44:25.609Z,13.20
2018-06-23T00:46:55.287Z,13.20
2018-06-23T00:49:25.030Z,12.80
2018-06-23T00:51:54.879Z,12.10
2018-06-23T00:54:24.629Z,12.00
2018-06-23T00:56:54.288Z,12.50
2018-06-23T00:59:35.026Z,12.80
2018-06-23T01:02:05.638Z,12.80
2018-06-23T01:04:35.535Z,12.90
2018-06-23T01:07:05.646Z,13.00
2018-06-23T01:09:35.376Z,13.10
2018-06-23T01:12:05.574Z,13.10
2018-06-23T01:14:35.597Z,13.10
2018-06-23T01:17:06.435Z,13.20
2018-06-23T01:19:36.168Z,13.10
2018-06-23T01:22:05.833Z,12.70
2018-06-23T01:24:35.530Z,12.70
2018-06-23T01:27:05.441Z,12.50
2018-06-23T01:29:35.180Z,12.30
2018-06-23T01:32:04.906Z,12.40
2018-06-23T01:34:34.596Z,12.40
2018-06-23T01:37:04.195Z,12.30
2018-06-23T01:39:34.001Z,12.10
2018-06-23T01:42:04.031Z,12.30
2018-06-23T01:44:33.779Z,12.30
2018-06-23T01:47:03.491Z,12.40
2018-06-23T01:49:33.212Z,12.10
2018-06-23T01:52:03.529Z,12.20
2018-06-23T01:54:33.227Z,12.20
2018-06-23T01:57:02.969Z,12.40
2018-06-23T01:59:32.727Z,12.50
2018-06-23T02:02:02.747Z,11.80
2018-06-23T02:04:32.433Z,11.70
2018-06-23T02:07:02.039Z,12.00
2018-06-23T02:09:31.731Z,12.10
2018-06-23T02:12:01.392Z,11.90
2018-06-23T02:14:36.334Z,11.80
2018-06-23T02:17:11.234Z,12.00
2018-06-23T02:19:46.166Z,11.60
2018-06-23T02:22:20.997Z,11.90
2018-06-23T02:24:55.799Z,12.00
2018-06-23T02:27:30.617Z,12.00
2018-06-23T02:32:46.662Z,12.20
2018-06-23T02:35:16.354Z,12.10
2018-06-23T02:37:46.430Z,12.10
2018-06-23T02:40:16.219Z,12.20
2018-06-23T02:42:45.840Z,12.00
2018-06-23T02:45:15.694Z,12.10
2018-06-23T02:47:45.376Z,12.20
2018-06-23T02:50:15.069Z,11.90
2018-06-23T02:52:44.809Z,11.90
2018-06-23T02:55:14.572Z,12.00
2018-06-23T02:57:44.680Z,12.10
2018-06-23T03:00:14.900Z,11.90
2018-06-23T03:02:44.823Z,12.10
2018-06-23T03:05:14.804Z,12.00
2018-06-23T03:07:44.861Z,11.90
2018-06-23T03:10:14.944Z,11.50
2018-06-23T03:12:44.980Z,11.50
2018-06-23T03:15:15.214Z,11.40
2018-06-23T03:17:46.487Z,11.10
2018-06-23T03:20:16.678Z,11.40
2018-06-23T03:22:49.884Z,11.30
2018-06-23T03:25:19.491Z,11.00
2018-06-23T03:27:49.166Z,11.30
2018-06-23T03:30:18.825Z,11.40
2018-06-23T03:32:48.486Z,11.40
2018-06-23T03:35:19.038Z,11.80
2018-06-23T03:37:49.538Z,11.70
2018-06-23T03:40:20.317Z,11.40
2018-06-23T03:42:50.134Z,11.70
2018-06-23T03:45:19.801Z,11.80
2018-06-23T03:47:49.532Z,12.00
2018-06-23T03:50:19.207Z,11.90
2018-06-23T03:52:48.810Z,12.00
2018-06-23T03:55:18.479Z,11.90
2018-06-23T03:57:48.152Z,11.50
2018-06-23T04:00:17.818Z,11.40
2018-06-23T04:02:47.718Z,11.50
2018-06-23T04:05:17.647Z,11.70
2018-06-23T04:07:47.317Z,11.50
2018-06-23T04:10:17.079Z,11.80
2018-06-23T04:12:47.095Z,11.60
2018-06-23T04:15:17.155Z,11.80
2018-06-23T04:17:47.156Z,12.00
2018-06-23T04:20:17.195Z,11.80
2018-06-23T04:22:47.214Z,12.40
2018-06-23T04:25:17.116Z,12.80
2018-06-23T04:27:47.160Z,13.00
2018-06-23T04:30:17.243Z,13.20
2018-06-23T04:32:47.225Z,13.60
2018-06-23T04:35:17.296Z,14.10
2018-06-23T04:37:47.450Z,14.30
2018-06-23T04:40:17.438Z,14.40
2018-06-23T04:42:47.732Z,14.50
2018-06-23T04:45:17.496Z,14.20
2018-06-23T04:47:47.574Z,14.50
2018-06-23T04:50:17.631Z,14.60
2018-06-23T04:52:47.606Z,14.80
2018-06-23T04:55:17.672Z,14.90
2018-06-23T04:57:47.710Z,14.80
2018-06-23T05:00:17.669Z,14.30
2018-06-23T05:02:47.727Z,14.30
2018-06-23T05:05:17.777Z,14.10
2018-06-23T05:07:47.788Z,14.60
2018-06-23T05:10:17.850Z,14.70
2018-06-23T05:12:47.856Z,14.60
2018-06-23T05:15:17.887Z,14.30
2018-06-23T05:17:47.865Z,14.30
2018-06-23T05:20:17.918Z,14.30
2018-06-23T05:22:48.079Z,14.50
2018-06-23T05:25:18.274Z,14.70
2018-06-23T05:27:49.251Z,14.70
2018-06-23T05:30:18.882Z,14.50
2018-06-23T05:32:48.538Z,13.50
2018-06-23T05:35:18.169Z,14.10
2018-06-23T05:37:49.129Z,15.30
2018-06-23T05:40:18.775Z,15.70
2018-06-23T05:42:48.809Z,15.50
2018-06-23T05:45:18.482Z,15.10
2018-06-23T05:47:48.096Z,15.90
2018-06-23T05:50:18.222Z,16.40
2018-06-23T05:52:47.920Z,16.60
2018-06-23T05:57:57.319Z,16.80
2018-06-23T06:00:27.057Z,17.10
2018-06-23T06:02:57.361Z,16.60
2018-06-23T06:05:27.421Z,17.10
2018-06-23T06:07:57.780Z,16.10
2018-06-23T06:10:34.197Z,16.50
2018-06-23T06:13:08.437Z,16.90
2018-06-23T06:15:50.808Z,16.80
2018-06-23T06:18:28.846Z,17.20
2018-06-23T06:21:04.906Z,17.60
2018-06-23T06:23:43.508Z,17.70
2018-06-23T06:26:23.282Z,18.10
2018-06-23T06:31:43.656Z,17.90
2018-06-23T06:34:21.942Z,18.10
2018-06-23T06:37:04.633Z,17.90
2018-06-23T06:39:41.204Z,18.50
2018-06-23T06:42:21.439Z,18.70
2018-06-23T06:45:02.237Z,19.10
2018-06-23T06:47:51.965Z,18.50
2018-06-23T06:50:35.812Z,18.70
2018-06-23T06:53:20.356Z,18.90
2018-06-23T06:58:46.480Z,19.10
2018-06-23T07:01:20.498Z,19.70
2018-06-23T07:04:00.067Z,19.80
2018-06-23T07:06:39.160Z,19.30
2018-06-23T07:09:19.944Z,18.50
2018-06-23T07:14:46.599Z,19.40
2018-06-23T07:17:28.030Z,19.70
2018-06-23T07:20:05.487Z,18.90
2018-06-23T07:22:44.860Z,19.50
2018-06-23T07:28:13.078Z,19.30
2018-06-23T07:30:55.240Z,19.40
2018-06-23T07:36:19.890Z,19.60
2018-06-23T07:39:07.400Z,19.40
2018-06-23T07:41:48.126Z,19.70
2018-06-23T07:44:29.381Z,19.80
2018-06-23T07:47:14.941Z,19.60
2018-06-23T07:52:43.454Z,19.80
2018-06-23T07:55:23.578Z,19.20
2018-06-23T08:00:52.490Z,19.10
2018-06-23T08:03:32.688Z,19.20
2018-06-23T08:06:11.254Z,19.10
2018-06-23T08:11:31.573Z,18.50
2018-06-23T08:14:09.267Z,19.00
2018-06-23T08:16:53.683Z,18.80
2018-06-23T08:22:10.957Z,19.60
2018-06-23T08:24:49.395Z,19.10
2018-06-23T08:27:36.846Z,19.40
2018-06-23T08:30:24.435Z,19.60
2018-06-23T08:33:09.274Z,19.70
2018-06-23T08:35:55.764Z,19.40
2018-06-23T08:38:41.165Z,20.00
2018-06-23T08:44:19.549Z,20.30
2018-06-23T08:49:53.177Z,18.80
2018-06-23T08:52:32.929Z,18.90
2018-06-23T08:58:02.871Z,18.90
2018-06-23T09:03:45.117Z,18.70
2018-06-23T09:06:21.525Z,18.90
2018-06-23T09:08:56.114Z,18.80
2018-06-23T09:11:33.484Z,18.60
2018-06-23T09:14:12.375Z,18.90
2018-06-23T09:22:31.340Z,19.10
2018-06-23T09:25:13.516Z,19.40
2018-06-23T09:27:47.152Z,19.40
2018-06-23T09:30:19.753Z,19.30
2018-06-23T09:32:51.543Z,19.50
2018-06-23T09:35:23.214Z,19.50
2018-06-23T09:37:56.327Z,19.70
2018-06-23T09:40:29.119Z,19.90
2018-06-23T09:43:00.833Z,20.40
2018-06-23T09:45:32.748Z,20.90
2018-06-23T09:48:04.709Z,21.10
2018-06-23T09:50:38.169Z,21.10
2018-06-23T09:53:11.948Z,21.70
2018-06-23T09:55:43.594Z,21.60
2018-06-23T09:58:15.922Z,21.00
2018-06-23T10:00:47.457Z,20.90
2018-06-23T10:03:19.164Z,20.60
2018-06-23T10:05:50.695Z,20.00
2018-06-23T10:08:23.392Z,20.10
2018-06-23T10:10:58.860Z,20.50
2018-06-23T10:13:46.892Z,20.60
2018-06-23T10:16:22.629Z,20.60
2018-06-23T10:18:54.965Z,20.50
2018-06-23T10:21:27.425Z,21.00
2018-06-23T10:23:59.791Z,21.50
2018-06-23T10:26:32.611Z,21.60
2018-06-23T10:29:05.676Z,22.10
2018-06-23T10:31:38.633Z,21.70
2018-06-23T10:34:11.287Z,21.20
2018-06-23T10:36:42.852Z,21.70
2018-06-23T10:39:15.752Z,21.90
2018-06-23T10:41:48.816Z,21.60
2018-06-23T10:44:21.294Z,21.20
2018-06-23T10:46:52.806Z,21.80
2018-06-23T10:49:24.400Z,22.40
2018-06-23T10:51:56.218Z,22.60
2018-06-23T10:54:27.846Z,23.10
2018-06-23T10:56:59.604Z,22.50
2018-06-23T10:59:31.526Z,22.50
2018-06-23T11:02:04.915Z,22.60
2018-06-23T11:04:37.185Z,22.90
2018-06-23T11:07:08.977Z,22.10
2018-06-23T11:09:41.221Z,22.10
2018-06-23T11:12:13.265Z,21.80
2018-06-23T11:14:47.303Z,22.30
2018-06-23T11:17:18.778Z,22.70
2018-06-23T11:19:50.917Z,22.30
2018-06-23T11:22:23.088Z,22.90
2018-06-23T11:24:55.593Z,22.80
2018-06-23T11:27:33.496Z,22.60
2018-06-23T11:30:11.854Z,22.70
2018-06-23T11:32:54.517Z,22.90
2018-06-23T11:35:35.531Z,23.10
2018-06-23T11:38:13.049Z,23.00
2018-06-23T11:40:50.025Z,23.20
2018-06-23T11:43:30.137Z,22.80
2018-06-23T11:46:16.421Z,23.00
2018-06-23T11:48:54.718Z,23.00
2018-06-23T11:51:28.342Z,22.70
2018-06-23T11:54:14.249Z,22.80
2018-06-23T11:56:55.387Z,22.50
2018-06-23T11:59:39.555Z,22.20
2018-06-23T12:02:23.229Z,22.80
2018-06-23T12:05:06.680Z,22.60
2018-06-23T12:07:44.150Z,22.50
2018-06-23T12:10:36.752Z,22.30
2018-06-23T12:13:20.660Z,22.40
2018-06-23T12:15:58.665Z,22.70
2018-06-23T12:18:36.792Z,22.70
2018-06-23T12:21:23.438Z,23.10
2018-06-23T12:24:00.481Z,23.30
2018-06-23T12:26:34.476Z,23.70
2018-06-23T12:29:08.435Z,23.50
2018-06-23T12:31:41.004Z,23.00
2018-06-23T12:34:15.466Z,23.00
2018-06-23T12:36:48.922Z,23.20
2018-06-23T12:39:25.327Z,23.30
2018-06-23T12:41:58.207Z,23.30
2018-06-23T12:44:34.311Z,23.10
2018-06-23T12:47:07.962Z,23.40
2018-06-23T12:49:42.381Z,23.20
2018-06-23T12:52:18.821Z,23.20
2018-06-23T12:54:57.805Z,23.20
2018-06-23T12:57:32.437Z,23.30
2018-06-23T13:00:06.259Z,23.50
2018-06-23T13:02:39.868Z,23.60
2018-06-23T13:07:57.485Z,23.40
2018-06-23T13:10:31.233Z,23.10
2018-06-23T13:13:06.496Z,23.30
2018-06-23T13:15:38.796Z,22.80
2018-06-23T13:18:11.555Z,23.00
2018-06-23T13:20:43.919Z,23.40
2018-06-23T13:23:16.729Z,23.40
2018-06-23T13:25:49.000Z,23.40
2018-06-23T13:28:21.599Z,24.00
2018-06-23T13:30:55.498Z,23.90
2018-06-23T13:33:31.155Z,23.50
2018-06-23T13:36:04.062Z,22.00
2018-06-23T13:38:37.073Z,22.50
2018-06-23T13:41:11.158Z,23.00
2018-06-23T13:43:44.113Z,23.30
2018-06-23T13:46:17.192Z,23.50
2018-06-23T13:48:50.166Z,23.60
2018-06-23T13:51:24.093Z,23.40
2018-06-23T13:53:56.106Z,22.90
2018-06-23T13:56:29.283Z,23.30
2018-06-23T13:59:03.468Z,23.60
2018-06-23T14:01:36.404Z,23.60
2018-06-23T14:04:09.761Z,23.70
2018-06-23T14:06:42.241Z,23.70
2018-06-23T14:09:14.488Z,23.50
2018-06-23T14:11:46.667Z,23.30
2018-06-23T14:19:57.953Z,23.00
2018-06-23T14:22:44.321Z,23.00
2018-06-23T14:25:25.349Z,23.30
2018-06-23T14:28:05.759Z,23.20
2018-06-23T14:30:38.281Z,23.10
2018-06-23T14:33:13.644Z,23.40
2018-06-23T14:35:51.515Z,23.70
2018-06-23T14:38:24.402Z,23.10
2018-06-23T14:41:01.979Z,22.50
2018-06-23T14:43:39.009Z,22.70
2018-06-23T14:46:23.452Z,22.70
2018-06-23T14:48:56.281Z,23.00
2018-06-23T14:51:28.860Z,22.40
2018-06-23T14:54:03.339Z,22.30
2018-06-23T14:56:45.653Z,22.20
2018-06-23T14:59:18.963Z,22.60
2018-06-23T15:01:52.993Z,23.00
2018-06-23T15:04:25.963Z,23.60
2018-06-23T15:07:00.458Z,24.40
2018-06-23T15:09:44.200Z,24.40
2018-06-23T15:12:31.870Z,24.50
2018-06-23T15:15:05.745Z,24.50
2018-06-23T15:17:38.069Z,23.90
2018-06-23T15:20:10.406Z,23.80
2018-06-23T15:22:52.864Z,23.90
2018-06-23T15:25:37.229Z,23.70
2018-06-23T15:28:23.682Z,23.40
2018-06-23T15:31:08.778Z,23.40
2018-06-23T15:33:48.010Z,23.10
2018-06-23T15:39:25.609Z,22.40
2018-06-23T15:42:05.013Z,22.40
2018-06-23T15:44:55.489Z,22.70
2018-06-23T15:47:36.797Z,22.70
2018-06-23T15:53:11.456Z,22.60
2018-06-23T15:56:01.599Z,22.40
2018-06-23T15:58:52.854Z,22.00
2018-06-23T16:01:38.322Z,22.10
2018-06-23T16:04:20.964Z,21.90
2018-06-23T16:10:03.381Z,22.10
2018-06-23T16:12:47.432Z,22.20
2018-06-23T16:15:28.656Z,21.90
2018-06-23T16:18:09.616Z,21.80
2018-06-23T16:26:49.524Z,21.30
2018-06-23T16:29:33.439Z,21.20
2018-06-23T16:35:04.474Z,20.90
2018-06-23T16:37:51.253Z,20.80
2018-06-23T16:40:34.766Z,20.60
2018-06-23T16:46:03.408Z,21.10
2018-06-23T16:48:44.943Z,21.20
2018-06-23T16:54:19.513Z,21.00
2018-06-23T16:59:54.405Z,20.90
2018-06-23T17:02:37.053Z,21.20
2018-06-23T17:08:27.344Z,21.50
2018-06-23T17:14:02.320Z,21.60
2018-06-23T17:19:41.237Z,21.50
2018-06-23T17:22:20.679Z,21.80
2018-06-23T17:24:58.035Z,21.50
2018-06-23T17:27:36.724Z,21.40
2018-06-23T17:30:15.637Z,21.50
2018-06-23T17:32:51.428Z,21.10
2018-06-23T17:35:30.644Z,21.30
2018-06-23T17:38:08.424Z,21.30
2018-06-23T17:40:41.902Z,21.10
2018-06-23T17:43:21.185Z,21.20
2018-06-23T17:45:58.860Z,21.10
2018-06-23T17:48:36.438Z,21.10
2018-06-23T17:51:11.977Z,21.00
2018-06-23T17:53:43.872Z,21.10
2018-06-23T17:56:15.965Z,21.20
2018-06-23T17:58:49.839Z,21.30
2018-06-23T18:01:23.065Z,21.00
2018-06-23T18:03:55.417Z,21.10
2018-06-23T18:06:28.894Z,21.10
2018-06-23T18:09:00.948Z,21.00
2018-06-23T18:11:35.049Z,20.80
2018-06-23T18:14:08.515Z,20.90
2018-06-23T18:16:53.374Z,21.00
2018-06-23T18:19:41.708Z,20.90
2018-06-23T18:22:23.848Z,20.70
2018-06-23T18:25:09.315Z,20.40
2018-06-23T18:27:52.323Z,20.30
2018-06-23T18:30:34.401Z,20.20
2018-06-23T18:33:11.991Z,20.20
2018-06-23T18:35:56.551Z,20.30
2018-06-23T18:38:30.504Z,20.50
2018-06-23T18:41:07.916Z,20.40
2018-06-23T18:43:42.661Z,20.30
2018-06-23T18:46:16.722Z,20.40
2018-06-23T18:48:50.956Z,20.30
2018-06-23T18:51:25.044Z,20.20
2018-06-23T18:53:56.923Z,20.10
2018-06-23T18:56:34.073Z,20.00
2018-06-23T18:59:07.195Z,19.90
2018-06-23T19:01:39.872Z,19.90
2018-06-23T19:04:13.436Z,19.80
2018-06-23T19:06:52.473Z,19.90
2018-06-23T19:09:27.160Z,19.80
2018-06-23T19:12:00.027Z,19.70
2018-06-23T19:14:32.324Z,19.80
2018-06-23T19:17:04.359Z,19.50
2018-06-23T19:19:37.259Z,19.40
2018-06-23T19:22:09.593Z,19.70
2018-06-23T19:24:43.768Z,19.80
2018-06-23T19:27:17.043Z,19.40
2018-06-23T19:29:49.866Z,19.50
2018-06-23T19:32:23.225Z,19.50
2018-06-23T19:35:00.532Z,19.30
2018-06-23T19:37:34.598Z,18.50
2018-06-23T19:40:07.324Z,19.00
2018-06-23T19:42:40.102Z,19.00
2018-06-23T19:45:16.385Z,19.30
2018-06-23T19:47:48.416Z,19.40
2018-06-23T19:50:21.800Z,19.50
2018-06-23T19:52:53.903Z,19.10
2018-06-23T19:55:26.940Z,19.00
2018-06-23T19:57:59.273Z,19.10
2018-06-23T20:00:31.987Z,19.00
2018-06-23T20:03:03.981Z,19.10
2018-06-23T20:05:38.111Z,18.90
2018-06-23T20:08:17.594Z,18.80
2018-06-23T20:10:55.413Z,19.00
2018-06-23T20:13:32.764Z,19.10
2018-06-23T20:16:09.269Z,19.10
2018-06-23T20:18:47.851Z,18.50
2018-06-23T20:21:26.163Z,18.50
2018-06-23T20:24:01.114Z,18.60
2018-06-23T20:26:34.540Z,18.70
2018-06-23T20:29:09.095Z,18.80
2018-06-23T20:31:46.316Z,18.60
2018-06-23T20:34:19.412Z,18.60
2018-06-23T20:36:57.730Z,18.40
2018-06-23T20:39:40.054Z,18.60
2018-06-23T20:42:20.224Z,18.40
2018-06-23T20:44:57.857Z,18.40
2018-06-23T20:47:36.126Z,18.30
2018-06-23T20:50:11.558Z,18.30
2018-06-23T20:52:49.904Z,18.20
2018-06-23T20:57:59.311Z,18.30
2018-06-23T21:00:38.459Z,18.40
2018-06-23T21:03:16.023Z,18.20
2018-06-23T21:05:56.876Z,18.20
2018-06-23T21:08:35.656Z,18.20
2018-06-23T21:11:11.163Z,17.80
2018-06-23T21:13:52.299Z,18.00
2018-06-23T21:16:34.197Z,18.10
2018-06-23T21:19:09.221Z,18.00
2018-06-23T21:21:51.731Z,17.80
2018-06-23T21:24:33.614Z,17.70
2018-06-23T21:27:13.969Z,17.80
2018-06-23T21:29:50.945Z,17.70
2018-06-23T21:32:28.360Z,17.60
2018-06-23T21:35:04.741Z,18.10
2018-06-23T21:37:45.998Z,18.30
2018-06-23T21:40:24.607Z,17.80
2018-06-23T21:42:59.685Z,17.80
2018-06-23T21:48:19.549Z,18.10
2018-06-23T21:50:54.101Z,18.30
2018-06-23T21:53:40.884Z,18.50
2018-06-23T21:56:18.080Z,18.60
2018-06-23T21:58:51.812Z,18.70
2018-06-23T22:01:24.990Z,18.50
2018-06-23T22:03:59.112Z,18.40
2018-06-23T22:06:33.511Z,18.60
2018-06-23T22:09:14.733Z,18.50
2018-06-23T22:11:49.920Z,18.50
2018-06-23T22:14:35.488Z,18.50
2018-06-23T22:17:19.505Z,18.40
2018-06-23T22:19:56.832Z,18.10
2018-06-23T22:25:19.823Z,18.10
2018-06-23T22:27:57.432Z,18.10
2018-06-23T22:30:38.625Z,17.90
2018-06-23T22:33:15.717Z,18.10
2018-06-23T22:35:51.310Z,18.10
2018-06-23T22:38:27.445Z,18.10
2018-06-23T22:41:07.083Z,18.20
2018-06-23T22:43:45.420Z,18.20
2018-06-23T22:46:19.844Z,17.90
2018-06-23T22:49:00.402Z,18.00
2018-06-23T22:51:41.596Z,18.00
2018-06-23T22:54:20.359Z,17.90
2018-06-23T22:56:57.950Z,17.90
2018-06-23T23:02:24.040Z,17.80
2018-06-23T23:05:05.926Z,17.70
2018-06-23T23:07:45.504Z,17.70
2018-06-23T23:10:27.235Z,17.50
2018-06-23T23:15:56.696Z,17.30
2018-06-23T23:18:30.808Z,17.00
2018-06-23T23:21:10.111Z,17.30
2018-06-23T23:23:46.820Z,17.40
2018-06-23T23:26:33.048Z,17.50
2018-06-23T23:29:20.820Z,17.60
2018-06-23T23:34:46.376Z,17.30
2018-06-23T23:37:21.485Z,17.20
2018-06-23T23:42:49.187Z,16.70
2018-06-23T23:45:31.271Z,16.70
2018-06-23T23:48:11.622Z,17.10
2018-06-23T23:50:51.675Z,17.10
2018-06-23T23:56:13.999Z,16.80
2018-06-23T23:58:56.436Z,16.30
